sensor_id;sensor_type;location;lat;lon;timestamp;temperature;humidity
51615;DHT22;37695;52.960;6.188;2022-12-13T00:01:29;-3.70;99.90
51615;DHT22;37695;52.960;6.188;2022-12-13T00:03:57;-3.60;99.90
51615;DHT22;37695;52.960;6.188;2022-12-13T00:06:24;-3.60;99.90
51615;DHT22;37695;52.960;6.188;2022-12-13T00:08:49;-3.60;99.90
51615;DHT22;37695;52.960;6.188;2022-12-13T00:11:15;-3.60;99.90
51615;DHT22;37695;52.960;6.188;2022-12-13T00:13:42;-3.50;99.90
51615;DHT22;37695;52.960;6.188;2022-12-13T00:16:12;-3.50;99.90
51615;DHT22;37695;52.960;6.188;2022-12-13T00:18:39;-3.50;99.90
51615;DHT22;37695;52.960;6.188;2022-12-13T00:21:08;-3.40;99.90
51615;DHT22;37695;52.960;6.188;2022-12-13T00:23:35;-3.40;99.90
51615;DHT22;37695;52.960;6.188;2022-12-13T00:26:22;-3.40;99.90
51615;DHT22;37695;52.960;6.188;2022-12-13T00:28:48;-3.40;99.90
51615;DHT22;37695;52.960;6.188;2022-12-13T00:31:16;-3.40;99.90
51615;DHT22;37695;52.960;6.188;2022-12-13T00:33:41;-3.40;99.90
51615;DHT22;37695;52.960;6.188;2022-12-13T00:36:08;-3.30;99.90
51615;DHT22;37695;52.960;6.188;2022-12-13T00:38:34;-2.40;99.90
51615;DHT22;37695;52.960;6.188;2022-12-13T00:41:16;-3.20;99.90
51615;DHT22;37695;52.960;6.188;2022-12-13T00:43:42;-3.30;99.90
51615;DHT22;37695;52.960;6.188;2022-12-13T00:46:13;-3.30;99.90
51615;DHT22;37695;52.960;6.188;2022-12-13T00:48:39;-3.40;99.90
51615;DHT22;37695;52.960;6.188;2022-12-13T00:51:06;-3.50;99.90
51615;DHT22;37695;52.960;6.188;2022-12-13T00:53:32;-3.50;99.90
51615;DHT22;37695;52.960;6.188;2022-12-13T00:55:58;-3.50;99.90
51615;DHT22;37695;52.960;6.188;2022-12-13T00:58:23;-3.50;99.90
51615;DHT22;37695;52.960;6.188;2022-12-13T01:00:49;-3.60;99.90
51615;DHT22;37695;52.960;6.188;2022-12-13T01:03:14;-3.70;99.90
51615;DHT22;37695;52.960;6.188;2022-12-13T01:05:50;-3.70;99.90
51615;DHT22;37695;52.960;6.188;2022-12-13T01:08:15;-3.60;99.90
51615;DHT22;37695;52.960;6.188;2022-12-13T01:10:45;-3.60;99.90
51615;DHT22;37695;52.960;6.188;2022-12-13T01:13:11;-3.50;99.90
51615;DHT22;37695;52.960;6.188;2022-12-13T01:15:43;-3.50;99.90
51615;DHT22;37695;52.960;6.188;2022-12-13T01:18:11;-3.50;99.90
51615;DHT22;37695;52.960;6.188;2022-12-13T01:20:36;-3.50;99.90
51615;DHT22;37695;52.960;6.188;2022-12-13T01:23:03;-3.40;99.90
51615;DHT22;37695;52.960;6.188;2022-12-13T01:25:28;-3.40;99.90
51615;DHT22;37695;52.960;6.188;2022-12-13T01:27:54;-3.40;99.90
51615;DHT22;37695;52.960;6.188;2022-12-13T01:30:20;-3.30;99.90
51615;DHT22;37695;52.960;6.188;2022-12-13T01:32:46;-3.40;99.90
51615;DHT22;37695;52.960;6.188;2022-12-13T01:35:11;-3.40;99.90
51615;DHT22;37695;52.960;6.188;2022-12-13T01:37:38;-3.50;99.90
51615;DHT22;37695;52.960;6.188;2022-12-13T01:40:04;-3.50;99.90
51615;DHT22;37695;52.960;6.188;2022-12-13T01:42:30;-3.60;99.90
51615;DHT22;37695;52.960;6.188;2022-12-13T01:44:57;-3.70;99.90
51615;DHT22;37695;52.960;6.188;2022-12-13T01:47:47;-3.70;99.90
51615;DHT22;37695;52.960;6.188;2022-12-13T01:50:24;-3.60;99.90
51615;DHT22;37695;52.960;6.188;2022-12-13T01:52:51;-3.60;99.90
51615;DHT22;37695;52.960;6.188;2022-12-13T01:55:19;-3.70;99.90
51615;DHT22;37695;52.960;6.188;2022-12-13T01:57:47;-3.70;99.90
51615;DHT22;37695;52.960;6.188;2022-12-13T02:00:14;-3.60;99.90
51615;DHT22;37695;52.960;6.188;2022-12-13T02:02:40;-3.70;99.90
51615;DHT22;37695;52.960;6.188;2022-12-13T02:05:12;-3.70;99.90
51615;DHT22;37695;52.960;6.188;2022-12-13T02:07:41;-3.80;99.90
51615;DHT22;37695;52.960;6.188;2022-12-13T02:10:08;-3.80;99.90
51615;DHT22;37695;52.960;6.188;2022-12-13T02:12:36;-3.90;99.90
51615;DHT22;37695;52.960;6.188;2022-12-13T02:15:08;-4.00;99.90
51615;DHT22;37695;52.960;6.188;2022-12-13T02:17:46;-4.00;99.90
51615;DHT22;37695;52.960;6.188;2022-12-13T02:26:14;-4.00;99.90
51615;DHT22;37695;52.960;6.188;2022-12-13T02:34:58;-3.90;99.90
51615;DHT22;37695;52.960;6.188;2022-12-13T02:42:51;-3.90;99.90
51615;DHT22;37695;52.960;6.188;2022-12-13T02:45:24;-3.90;99.90
51615;DHT22;37695;52.960;6.188;2022-12-13T02:47:54;-3.90;99.90
51615;DHT22;37695;52.960;6.188;2022-12-13T02:50:23;-3.90;99.90
51615;DHT22;37695;52.960;6.188;2022-12-13T02:52:51;-3.90;99.90
51615;DHT22;37695;52.960;6.188;2022-12-13T02:55:17;-4.00;99.90
51615;DHT22;37695;52.960;6.188;2022-12-13T02:57:44;-4.10;99.90
51615;DHT22;37695;52.960;6.188;2022-12-13T03:00:14;-4.10;99.90
51615;DHT22;37695;52.960;6.188;2022-12-13T03:03:18;-4.20;99.90
51615;DHT22;37695;52.960;6.188;2022-12-13T03:06:31;-4.20;99.90
51615;DHT22;37695;52.960;6.188;2022-12-13T03:15:07;-4.10;99.90
51615;DHT22;37695;52.960;6.188;2022-12-13T03:17:41;-4.10;99.90
51615;DHT22;37695;52.960;6.188;2022-12-13T03:20:09;-4.20;99.90
51615;DHT22;37695;52.960;6.188;2022-12-13T03:22:34;-4.20;99.90
51615;DHT22;37695;52.960;6.188;2022-12-13T03:25:00;-4.20;99.90
51615;DHT22;37695;52.960;6.188;2022-12-13T03:27:26;-4.20;99.90
51615;DHT22;37695;52.960;6.188;2022-12-13T03:29:51;-4.30;99.90
51615;DHT22;37695;52.960;6.188;2022-12-13T03:32:17;-4.30;99.90
51615;DHT22;37695;52.960;6.188;2022-12-13T03:34:42;-4.30;99.90
51615;DHT22;37695;52.960;6.188;2022-12-13T03:37:08;-4.30;99.90
51615;DHT22;37695;52.960;6.188;2022-12-13T03:39:34;-4.30;99.90
51615;DHT22;37695;52.960;6.188;2022-12-13T03:41:59;-4.30;99.90
51615;DHT22;37695;52.960;6.188;2022-12-13T03:44:25;-4.30;99.90
51615;DHT22;37695;52.960;6.188;2022-12-13T03:46:51;-4.30;99.90
51615;DHT22;37695;52.960;6.188;2022-12-13T03:49:17;-4.30;99.90
51615;DHT22;37695;52.960;6.188;2022-12-13T03:51:42;-4.30;99.90
51615;DHT22;37695;52.960;6.188;2022-12-13T03:54:08;-4.30;99.90
51615;DHT22;37695;52.960;6.188;2022-12-13T03:56:33;-4.30;99.90
51615;DHT22;37695;52.960;6.188;2022-12-13T03:58:59;-4.30;99.90
51615;DHT22;37695;52.960;6.188;2022-12-13T04:01:26;-4.30;99.90
51615;DHT22;37695;52.960;6.188;2022-12-13T04:03:52;-4.20;99.90
51615;DHT22;37695;52.960;6.188;2022-12-13T04:06:18;-4.20;99.90
51615;DHT22;37695;52.960;6.188;2022-12-13T04:08:44;-4.20;99.90
51615;DHT22;37695;52.960;6.188;2022-12-13T04:11:09;-4.10;99.90
51615;DHT22;37695;52.960;6.188;2022-12-13T04:13:54;-4.10;99.90
51615;DHT22;37695;52.960;6.188;2022-12-13T04:16:20;-5.60;99.90
51615;DHT22;37695;52.960;6.188;2022-12-13T04:18:46;-4.20;99.90
51615;DHT22;37695;52.960;6.188;2022-12-13T04:21:11;-4.20;99.90
51615;DHT22;37695;52.960;6.188;2022-12-13T04:23:37;-4.20;99.90
51615;DHT22;37695;52.960;6.188;2022-12-13T04:26:02;-4.20;99.90
51615;DHT22;37695;52.960;6.188;2022-12-13T04:28:28;-4.20;99.90
51615;DHT22;37695;52.960;6.188;2022-12-13T04:30:53;-4.20;99.90
51615;DHT22;37695;52.960;6.188;2022-12-13T04:33:20;-4.20;99.90
51615;DHT22;37695;52.960;6.188;2022-12-13T04:35:46;-4.30;99.90
51615;DHT22;37695;52.960;6.188;2022-12-13T04:38:12;-4.40;99.90
51615;DHT22;37695;52.960;6.188;2022-12-13T04:40:37;-4.40;99.90
51615;DHT22;37695;52.960;6.188;2022-12-13T04:43:03;-4.30;99.90
51615;DHT22;37695;52.960;6.188;2022-12-13T04:45:29;-4.30;99.90
51615;DHT22;37695;52.960;6.188;2022-12-13T04:47:54;-3.60;99.90
51615;DHT22;37695;52.960;6.188;2022-12-13T04:50:20;-4.30;99.90
51615;DHT22;37695;52.960;6.188;2022-12-13T04:52:45;-4.30;99.90
51615;DHT22;37695;52.960;6.188;2022-12-13T04:55:11;-4.40;99.90
51615;DHT22;37695;52.960;6.188;2022-12-13T04:57:36;-4.50;99.90
51615;DHT22;37695;52.960;6.188;2022-12-13T05:00:04;-4.50;99.90
51615;DHT22;37695;52.960;6.188;2022-12-13T05:02:31;-4.50;99.90
51615;DHT22;37695;52.960;6.188;2022-12-13T05:04:56;-4.50;99.90
51615;DHT22;37695;52.960;6.188;2022-12-13T05:07:22;-4.50;99.90
51615;DHT22;37695;52.960;6.188;2022-12-13T05:09:48;-4.60;99.90
51615;DHT22;37695;52.960;6.188;2022-12-13T05:12:13;-4.60;99.90
51615;DHT22;37695;52.960;6.188;2022-12-13T05:14:39;-4.50;99.90
51615;DHT22;37695;52.960;6.188;2022-12-13T05:17:04;-4.50;99.90
51615;DHT22;37695;52.960;6.188;2022-12-13T05:19:30;-4.50;99.90
51615;DHT22;37695;52.960;6.188;2022-12-13T05:21:55;-4.50;99.90
51615;DHT22;37695;52.960;6.188;2022-12-13T05:24:21;-4.40;99.90
51615;DHT22;37695;52.960;6.188;2022-12-13T05:26:47;-4.60;99.90
51615;DHT22;37695;52.960;6.188;2022-12-13T05:29:12;-4.70;99.90
51615;DHT22;37695;52.960;6.188;2022-12-13T05:31:38;-4.60;99.90
51615;DHT22;37695;52.960;6.188;2022-12-13T05:34:04;-4.50;99.90
51615;DHT22;37695;52.960;6.188;2022-12-13T05:36:29;-4.50;99.90
51615;DHT22;37695;52.960;6.188;2022-12-13T05:38:55;-4.50;99.90
51615;DHT22;37695;52.960;6.188;2022-12-13T05:41:22;-4.50;99.90
51615;DHT22;37695;52.960;6.188;2022-12-13T05:43:51;-4.50;99.90
51615;DHT22;37695;52.960;6.188;2022-12-13T05:46:16;-4.50;99.90
51615;DHT22;37695;52.960;6.188;2022-12-13T05:48:43;-4.50;99.90
51615;DHT22;37695;52.960;6.188;2022-12-13T05:51:09;-4.50;99.90
51615;DHT22;37695;52.960;6.188;2022-12-13T05:53:35;-4.60;99.90
51615;DHT22;37695;52.960;6.188;2022-12-13T05:56:01;-4.60;99.90
51615;DHT22;37695;52.960;6.188;2022-12-13T05:58:27;-4.70;99.90
51615;DHT22;37695;52.960;6.188;2022-12-13T06:00:53;-4.70;99.90
51615;DHT22;37695;52.960;6.188;2022-12-13T06:03:18;-4.70;99.90
51615;DHT22;37695;52.960;6.188;2022-12-13T06:05:44;-4.70;99.90
51615;DHT22;37695;52.960;6.188;2022-12-13T06:08:10;-4.60;99.90
51615;DHT22;37695;52.960;6.188;2022-12-13T06:10:35;-4.60;99.90
51615;DHT22;37695;52.960;6.188;2022-12-13T06:13:04;-4.60;99.90
51615;DHT22;37695;52.960;6.188;2022-12-13T06:15:30;-4.60;99.90
51615;DHT22;37695;52.960;6.188;2022-12-13T06:17:58;-4.60;99.90
51615;DHT22;37695;52.960;6.188;2022-12-13T06:20:24;-4.60;99.90
51615;DHT22;37695;52.960;6.188;2022-12-13T06:22:51;-4.60;99.90
51615;DHT22;37695;52.960;6.188;2022-12-13T06:25:16;-4.60;99.90
51615;DHT22;37695;52.960;6.188;2022-12-13T06:27:42;-4.50;99.90
51615;DHT22;37695;52.960;6.188;2022-12-13T06:30:08;-4.60;99.90
51615;DHT22;37695;52.960;6.188;2022-12-13T06:32:34;-4.60;99.90
51615;DHT22;37695;52.960;6.188;2022-12-13T06:34:59;-4.60;99.90
51615;DHT22;37695;52.960;6.188;2022-12-13T06:37:25;-4.50;99.90
51615;DHT22;37695;52.960;6.188;2022-12-13T06:39:50;-4.50;99.90
51615;DHT22;37695;52.960;6.188;2022-12-13T06:42:18;-4.50;99.90
51615;DHT22;37695;52.960;6.188;2022-12-13T06:44:43;-4.50;99.90
51615;DHT22;37695;52.960;6.188;2022-12-13T06:47:09;-4.50;99.90
51615;DHT22;37695;52.960;6.188;2022-12-13T06:49:35;-4.50;99.90
51615;DHT22;37695;52.960;6.188;2022-12-13T06:52:01;-4.50;99.90
51615;DHT22;37695;52.960;6.188;2022-12-13T06:54:27;-4.40;99.90
51615;DHT22;37695;52.960;6.188;2022-12-13T06:56:53;-4.50;99.90
51615;DHT22;37695;52.960;6.188;2022-12-13T06:59:18;-4.50;99.90
51615;DHT22;37695;52.960;6.188;2022-12-13T07:01:44;-4.50;99.90
51615;DHT22;37695;52.960;6.188;2022-12-13T07:04:11;-4.50;99.90
51615;DHT22;37695;52.960;6.188;2022-12-13T07:06:37;-4.50;99.90
51615;DHT22;37695;52.960;6.188;2022-12-13T07:09:02;-4.50;99.90
51615;DHT22;37695;52.960;6.188;2022-12-13T07:11:29;-4.40;99.90
51615;DHT22;37695;52.960;6.188;2022-12-13T07:13:55;-4.40;99.90
51615;DHT22;37695;52.960;6.188;2022-12-13T07:16:22;-4.40;99.90
51615;DHT22;37695;52.960;6.188;2022-12-13T07:18:56;-4.40;99.90
51615;DHT22;37695;52.960;6.188;2022-12-13T07:21:22;-4.30;99.90
51615;DHT22;37695;52.960;6.188;2022-12-13T07:23:48;-4.30;99.90
51615;DHT22;37695;52.960;6.188;2022-12-13T07:26:15;-4.30;99.90
51615;DHT22;37695;52.960;6.188;2022-12-13T07:28:41;-4.40;99.90
51615;DHT22;37695;52.960;6.188;2022-12-13T07:31:08;-4.30;99.90
51615;DHT22;37695;52.960;6.188;2022-12-13T07:33:34;-4.30;99.90
51615;DHT22;37695;52.960;6.188;2022-12-13T07:36:00;-4.40;99.90
51615;DHT22;37695;52.960;6.188;2022-12-13T07:38:26;-4.40;99.90
51615;DHT22;37695;52.960;6.188;2022-12-13T07:40:55;-4.50;99.90
51615;DHT22;37695;52.960;6.188;2022-12-13T07:43:21;-4.60;99.90
51615;DHT22;37695;52.960;6.188;2022-12-13T07:45:47;-4.70;99.90
51615;DHT22;37695;52.960;6.188;2022-12-13T07:48:12;-4.70;99.90
51615;DHT22;37695;52.960;6.188;2022-12-13T07:50:38;-4.80;99.90
51615;DHT22;37695;52.960;6.188;2022-12-13T07:53:05;-4.70;99.90
51615;DHT22;37695;52.960;6.188;2022-12-13T07:55:31;-4.70;99.90
51615;DHT22;37695;52.960;6.188;2022-12-13T07:58:11;-4.60;99.90
51615;DHT22;37695;52.960;6.188;2022-12-13T08:00:37;-4.60;99.90
51615;DHT22;37695;52.960;6.188;2022-12-13T08:03:04;-4.50;99.90
51615;DHT22;37695;52.960;6.188;2022-12-13T08:05:30;-4.60;99.90
51615;DHT22;37695;52.960;6.188;2022-12-13T08:07:56;-4.50;99.90
51615;DHT22;37695;52.960;6.188;2022-12-13T08:10:21;-4.50;99.90
51615;DHT22;37695;52.960;6.188;2022-12-13T08:12:47;-4.40;99.90
51615;DHT22;37695;52.960;6.188;2022-12-13T08:15:14;-4.40;99.90
51615;DHT22;37695;52.960;6.188;2022-12-13T08:17:40;-4.30;99.90
51615;DHT22;37695;52.960;6.188;2022-12-13T08:20:05;-4.30;99.90
51615;DHT22;37695;52.960;6.188;2022-12-13T08:22:31;-4.20;99.90
51615;DHT22;37695;52.960;6.188;2022-12-13T08:24:56;-4.20;99.90
51615;DHT22;37695;52.960;6.188;2022-12-13T08:27:22;-4.20;99.90
51615;DHT22;37695;52.960;6.188;2022-12-13T08:29:47;-4.20;99.90
51615;DHT22;37695;52.960;6.188;2022-12-13T08:32:13;-4.10;99.90
51615;DHT22;37695;52.960;6.188;2022-12-13T08:34:39;-4.10;99.90
51615;DHT22;37695;52.960;6.188;2022-12-13T08:37:05;-4.00;99.90
51615;DHT22;37695;52.960;6.188;2022-12-13T08:39:33;-3.90;99.90
51615;DHT22;37695;52.960;6.188;2022-12-13T08:41:59;-3.80;99.90
51615;DHT22;37695;52.960;6.188;2022-12-13T08:44:24;-3.70;99.90
51615;DHT22;37695;52.960;6.188;2022-12-13T08:46:50;-3.60;99.90
51615;DHT22;37695;52.960;6.188;2022-12-13T08:49:15;-3.50;99.90
51615;DHT22;37695;52.960;6.188;2022-12-13T08:51:41;-3.50;99.90
51615;DHT22;37695;52.960;6.188;2022-12-13T08:54:06;-3.50;99.90
51615;DHT22;37695;52.960;6.188;2022-12-13T08:56:32;-3.50;99.90
51615;DHT22;37695;52.960;6.188;2022-12-13T08:58:57;-3.40;99.90
51615;DHT22;37695;52.960;6.188;2022-12-13T09:01:23;-3.40;99.90
51615;DHT22;37695;52.960;6.188;2022-12-13T09:03:48;-3.40;99.90
51615;DHT22;37695;52.960;6.188;2022-12-13T09:06:15;-3.30;99.90
51615;DHT22;37695;52.960;6.188;2022-12-13T09:08:41;-3.30;99.90
51615;DHT22;37695;52.960;6.188;2022-12-13T09:11:09;-3.30;99.90
51615;DHT22;37695;52.960;6.188;2022-12-13T09:13:35;-3.20;99.90
51615;DHT22;37695;52.960;6.188;2022-12-13T09:16:14;-3.20;99.90
51615;DHT22;37695;52.960;6.188;2022-12-13T09:18:41;-3.20;99.90
51615;DHT22;37695;52.960;6.188;2022-12-13T09:21:08;-3.10;99.90
51615;DHT22;37695;52.960;6.188;2022-12-13T09:23:34;-3.00;99.90
51615;DHT22;37695;52.960;6.188;2022-12-13T09:26:00;-2.90;99.90
51615;DHT22;37695;52.960;6.188;2022-12-13T09:28:27;-2.80;99.90
51615;DHT22;37695;52.960;6.188;2022-12-13T09:30:54;-2.80;99.90
51615;DHT22;37695;52.960;6.188;2022-12-13T09:33:20;-2.80;99.90
51615;DHT22;37695;52.960;6.188;2022-12-13T09:35:45;-2.70;99.90
51615;DHT22;37695;52.960;6.188;2022-12-13T09:38:11;-2.60;99.90
51615;DHT22;37695;52.960;6.188;2022-12-13T09:40:38;-2.60;99.90
51615;DHT22;37695;52.960;6.188;2022-12-13T09:43:04;-2.50;99.90
51615;DHT22;37695;52.960;6.188;2022-12-13T09:45:30;-2.50;99.90
51615;DHT22;37695;52.960;6.188;2022-12-13T09:47:58;-2.40;99.90
51615;DHT22;37695;52.960;6.188;2022-12-13T09:50:34;-2.30;99.90
51615;DHT22;37695;52.960;6.188;2022-12-13T09:53:03;-2.20;99.90
51615;DHT22;37695;52.960;6.188;2022-12-13T09:55:37;-2.20;99.90
51615;DHT22;37695;52.960;6.188;2022-12-13T09:58:12;-2.20;99.90
51615;DHT22;37695;52.960;6.188;2022-12-13T10:00:39;-2.20;99.90
51615;DHT22;37695;52.960;6.188;2022-12-13T10:03:05;-2.10;99.90
51615;DHT22;37695;52.960;6.188;2022-12-13T10:05:35;-2.10;99.90
51615;DHT22;37695;52.960;6.188;2022-12-13T10:08:16;-2.00;99.90
51615;DHT22;37695;52.960;6.188;2022-12-13T10:10:44;-2.00;99.90
51615;DHT22;37695;52.960;6.188;2022-12-13T10:16:01;-1.90;99.90
51615;DHT22;37695;52.960;6.188;2022-12-13T10:18:39;-1.80;99.90
51615;DHT22;37695;52.960;6.188;2022-12-13T10:21:18;-1.80;99.90
51615;DHT22;37695;52.960;6.188;2022-12-13T10:23:46;-1.80;99.90
51615;DHT22;37695;52.960;6.188;2022-12-13T10:26:12;-1.70;99.90
51615;DHT22;37695;52.960;6.188;2022-12-13T10:28:39;-1.60;99.90
51615;DHT22;37695;52.960;6.188;2022-12-13T10:31:05;-1.60;99.90
51615;DHT22;37695;52.960;6.188;2022-12-13T10:33:33;-1.50;99.90
51615;DHT22;37695;52.960;6.188;2022-12-13T10:38:44;-1.40;99.90
51615;DHT22;37695;52.960;6.188;2022-12-13T10:44:12;-1.20;99.90
51615;DHT22;37695;52.960;6.188;2022-12-13T10:46:47;-1.10;99.90
51615;DHT22;37695;52.960;6.188;2022-12-13T10:49:22;-1.10;99.90
51615;DHT22;37695;52.960;6.188;2022-12-13T10:51:50;-1.00;99.90
51615;DHT22;37695;52.960;6.188;2022-12-13T10:54:28;-0.90;99.90
51615;DHT22;37695;52.960;6.188;2022-12-13T10:56:55;0.10;99.90
51615;DHT22;37695;52.960;6.188;2022-12-13T10:59:36;-0.80;99.90
51615;DHT22;37695;52.960;6.188;2022-12-13T11:04:52;-0.80;99.90
51615;DHT22;37695;52.960;6.188;2022-12-13T11:07:32;-0.70;99.90
51615;DHT22;37695;52.960;6.188;2022-12-13T11:10:22;-0.70;99.90
51615;DHT22;37695;52.960;6.188;2022-12-13T11:12:49;-0.70;99.90
51615;DHT22;37695;52.960;6.188;2022-12-13T11:15:18;-0.60;99.90
51615;DHT22;37695;52.960;6.188;2022-12-13T11:17:54;-0.60;99.90
51615;DHT22;37695;52.960;6.188;2022-12-13T11:20:26;-0.50;99.90
51615;DHT22;37695;52.960;6.188;2022-12-13T11:23:05;-0.50;99.90
51615;DHT22;37695;52.960;6.188;2022-12-13T11:25:42;-0.40;99.90
51615;DHT22;37695;52.960;6.188;2022-12-13T11:31:15;-0.40;99.90
51615;DHT22;37695;52.960;6.188;2022-12-13T11:34:14;-0.30;99.90
51615;DHT22;37695;52.960;6.188;2022-12-13T11:37:44;-0.20;99.90
51615;DHT22;37695;52.960;6.188;2022-12-13T11:39:54;-0.10;99.90
51615;DHT22;37695;52.960;6.188;2022-12-13T11:42:39;-0.10;99.90
51615;DHT22;37695;52.960;6.188;2022-12-13T11:48:04;-0.10;99.90
51615;DHT22;37695;52.960;6.188;2022-12-13T11:50:49;0.00;99.90
51615;DHT22;37695;52.960;6.188;2022-12-13T11:56:20;0.10;99.90
51615;DHT22;37695;52.960;6.188;2022-12-13T12:01:58;0.10;99.90
51615;DHT22;37695;52.960;6.188;2022-12-13T12:07:15;0.30;99.90
51615;DHT22;37695;52.960;6.188;2022-12-13T12:09:48;0.30;99.90
51615;DHT22;37695;52.960;6.188;2022-12-13T12:12:23;0.30;99.90
51615;DHT22;37695;52.960;6.188;2022-12-13T12:15:09;0.30;99.90
51615;DHT22;37695;52.960;6.188;2022-12-13T12:17:36;0.30;99.90
51615;DHT22;37695;52.960;6.188;2022-12-13T12:20:02;0.30;99.90
51615;DHT22;37695;52.960;6.188;2022-12-13T12:28:16;0.40;99.90
51615;DHT22;37695;52.960;6.188;2022-12-13T12:31:00;0.50;99.90
51615;DHT22;37695;52.960;6.188;2022-12-13T12:48:17;0.60;99.90
51615;DHT22;37695;52.960;6.188;2022-12-13T12:50:52;0.60;99.90
51615;DHT22;37695;52.960;6.188;2022-12-13T13:02:25;0.60;99.90
51615;DHT22;37695;52.960;6.188;2022-12-13T13:04:58;0.70;99.90
51615;DHT22;37695;52.960;6.188;2022-12-13T13:07:38;0.80;99.90
51615;DHT22;37695;52.960;6.188;2022-12-13T13:10:05;0.80;99.90
51615;DHT22;37695;52.960;6.188;2022-12-13T13:12:37;0.90;99.90
51615;DHT22;37695;52.960;6.188;2022-12-13T13:17:58;0.90;99.90
51615;DHT22;37695;52.960;6.188;2022-12-13T13:20:25;0.90;99.90
51615;DHT22;37695;52.960;6.188;2022-12-13T13:22:55;0.90;99.90
51615;DHT22;37695;52.960;6.188;2022-12-13T13:25:29;1.00;99.90
51615;DHT22;37695;52.960;6.188;2022-12-13T13:28:15;1.00;99.90
51615;DHT22;37695;52.960;6.188;2022-12-13T13:31:04;1.00;99.90
51615;DHT22;37695;52.960;6.188;2022-12-13T13:33:49;1.00;99.90
51615;DHT22;37695;52.960;6.188;2022-12-13T13:39:15;0.90;99.90
51615;DHT22;37695;52.960;6.188;2022-12-13T13:55:21;0.90;99.90
51615;DHT22;37695;52.960;6.188;2022-12-13T14:01:26;0.80;99.90
51615;DHT22;37695;52.960;6.188;2022-12-13T14:07:25;0.80;99.90
51615;DHT22;37695;52.960;6.188;2022-12-13T14:10:22;0.70;99.90
51615;DHT22;37695;52.960;6.188;2022-12-13T14:21:26;0.50;99.90
51615;DHT22;37695;52.960;6.188;2022-12-13T14:29:45;0.30;99.90
51615;DHT22;37695;52.960;6.188;2022-12-13T14:32:24;0.30;99.90
51615;DHT22;37695;52.960;6.188;2022-12-13T14:34:50;0.20;99.90
51615;DHT22;37695;52.960;6.188;2022-12-13T14:37:28;0.10;99.90
51615;DHT22;37695;52.960;6.188;2022-12-13T14:39:58;0.00;99.90
51615;DHT22;37695;52.960;6.188;2022-12-13T14:42:27;-0.10;99.90
51615;DHT22;37695;52.960;6.188;2022-12-13T14:44:54;-0.20;99.90
51615;DHT22;37695;52.960;6.188;2022-12-13T14:47:20;-0.30;99.90
51615;DHT22;37695;52.960;6.188;2022-12-13T14:49:52;-0.40;99.90
51615;DHT22;37695;52.960;6.188;2022-12-13T14:52:24;-0.50;99.90
51615;DHT22;37695;52.960;6.188;2022-12-13T14:54:59;-0.50;99.90
51615;DHT22;37695;52.960;6.188;2022-12-13T14:57:27;-0.60;99.90
51615;DHT22;37695;52.960;6.188;2022-12-13T14:59:55;-0.60;99.90
51615;DHT22;37695;52.960;6.188;2022-12-13T15:02:24;-0.70;99.90
51615;DHT22;37695;52.960;6.188;2022-12-13T15:04:57;-0.70;99.90
51615;DHT22;37695;52.960;6.188;2022-12-13T15:07:35;-0.80;99.90
51615;DHT22;37695;52.960;6.188;2022-12-13T15:12:30;-0.90;99.90
51615;DHT22;37695;52.960;6.188;2022-12-13T15:15:01;-0.90;99.90
51615;DHT22;37695;52.960;6.188;2022-12-13T15:17:32;-1.00;99.90
51615;DHT22;37695;52.960;6.188;2022-12-13T15:19:59;-1.00;99.90
51615;DHT22;37695;52.960;6.188;2022-12-13T15:22:25;-1.00;99.90
51615;DHT22;37695;52.960;6.188;2022-12-13T15:24:51;-1.10;99.90
51615;DHT22;37695;52.960;6.188;2022-12-13T15:27:19;-0.80;99.90
51615;DHT22;37695;52.960;6.188;2022-12-13T15:29:46;-1.20;99.90
51615;DHT22;37695;52.960;6.188;2022-12-13T15:32:14;-1.20;99.90
51615;DHT22;37695;52.960;6.188;2022-12-13T15:34:44;-1.30;99.90
51615;DHT22;37695;52.960;6.188;2022-12-13T15:39:38;-1.30;99.90
51615;DHT22;37695;52.960;6.188;2022-12-13T15:42:11;-1.30;99.90
51615;DHT22;37695;52.960;6.188;2022-12-13T15:44:48;-1.30;99.90
51615;DHT22;37695;52.960;6.188;2022-12-13T15:47:16;-1.40;99.90
51615;DHT22;37695;52.960;6.188;2022-12-13T15:52:36;-1.40;99.90
51615;DHT22;37695;52.960;6.188;2022-12-13T15:57:45;-1.40;99.90
51615;DHT22;37695;52.960;6.188;2022-12-13T16:05:45;-1.60;99.90
51615;DHT22;37695;52.960;6.188;2022-12-13T16:08:07;-1.70;99.90
51615;DHT22;37695;52.960;6.188;2022-12-13T16:10:45;-1.70;99.90
51615;DHT22;37695;52.960;6.188;2022-12-13T16:13:27;-1.70;99.90
51615;DHT22;37695;52.960;6.188;2022-12-13T16:16:00;-1.80;99.90
51615;DHT22;37695;52.960;6.188;2022-12-13T16:18:31;-1.80;99.90
51615;DHT22;37695;52.960;6.188;2022-12-13T16:20:57;-1.90;99.90
51615;DHT22;37695;52.960;6.188;2022-12-13T16:23:23;-1.90;99.90
51615;DHT22;37695;52.960;6.188;2022-12-13T16:25:49;-1.90;99.90
51615;DHT22;37695;52.960;6.188;2022-12-13T16:28:16;-1.90;99.90
51615;DHT22;37695;52.960;6.188;2022-12-13T16:33:20;-1.90;99.90
51615;DHT22;37695;52.960;6.188;2022-12-13T16:35:46;-2.00;99.90
51615;DHT22;37695;52.960;6.188;2022-12-13T16:38:13;-2.00;99.90
51615;DHT22;37695;52.960;6.188;2022-12-13T16:40:39;-2.00;99.90
51615;DHT22;37695;52.960;6.188;2022-12-13T16:43:06;-2.00;99.90
51615;DHT22;37695;52.960;6.188;2022-12-13T16:45:41;-2.00;99.90
51615;DHT22;37695;52.960;6.188;2022-12-13T16:48:11;-2.10;99.90
51615;DHT22;37695;52.960;6.188;2022-12-13T16:50:41;-2.10;99.90
51615;DHT22;37695;52.960;6.188;2022-12-13T16:53:07;-2.20;99.90
51615;DHT22;37695;52.960;6.188;2022-12-13T16:55:33;-2.20;99.90
51615;DHT22;37695;52.960;6.188;2022-12-13T16:58:00;-2.20;99.90
51615;DHT22;37695;52.960;6.188;2022-12-13T17:00:27;-2.20;99.90
51615;DHT22;37695;52.960;6.188;2022-12-13T17:02:54;-2.30;99.90
51615;DHT22;37695;52.960;6.188;2022-12-13T17:05:20;-2.30;99.90
51615;DHT22;37695;52.960;6.188;2022-12-13T17:07:46;-2.30;99.90
51615;DHT22;37695;52.960;6.188;2022-12-13T17:10:12;-2.30;99.90
51615;DHT22;37695;52.960;6.188;2022-12-13T17:12:38;-2.30;99.90
51615;DHT22;37695;52.960;6.188;2022-12-13T17:15:04;-2.30;99.90
51615;DHT22;37695;52.960;6.188;2022-12-13T17:17:30;-2.30;99.90
51615;DHT22;37695;52.960;6.188;2022-12-13T17:19:55;-2.40;99.90
51615;DHT22;37695;52.960;6.188;2022-12-13T17:22:21;-2.30;99.90
51615;DHT22;37695;52.960;6.188;2022-12-13T17:24:47;-2.30;99.90
51615;DHT22;37695;52.960;6.188;2022-12-13T17:27:12;-2.30;99.90
51615;DHT22;37695;52.960;6.188;2022-12-13T17:29:38;-2.40;99.90
51615;DHT22;37695;52.960;6.188;2022-12-13T17:32:04;-2.40;99.90
51615;DHT22;37695;52.960;6.188;2022-12-13T17:34:29;-2.40;99.90
51615;DHT22;37695;52.960;6.188;2022-12-13T17:36:55;-2.40;99.90
51615;DHT22;37695;52.960;6.188;2022-12-13T17:39:21;-2.50;99.90
51615;DHT22;37695;52.960;6.188;2022-12-13T17:41:47;-2.60;99.90
51615;DHT22;37695;52.960;6.188;2022-12-13T17:44:12;-2.60;99.90
51615;DHT22;37695;52.960;6.188;2022-12-13T17:46:38;-2.70;99.90
51615;DHT22;37695;52.960;6.188;2022-12-13T17:49:03;-2.70;99.90
51615;DHT22;37695;52.960;6.188;2022-12-13T17:51:29;-2.80;99.90
51615;DHT22;37695;52.960;6.188;2022-12-13T17:53:54;-2.80;99.90
51615;DHT22;37695;52.960;6.188;2022-12-13T17:56:20;-2.80;99.90
51615;DHT22;37695;52.960;6.188;2022-12-13T17:58:46;-2.80;99.90
51615;DHT22;37695;52.960;6.188;2022-12-13T18:01:17;-2.80;99.90